Time;durP1;ratioP1;P1;durP2;ratioP2;P2;SDS_P1;SDS_P2;PMS_P1;PMS_P2;Temp;Humidity;BMP_temperature;BMP_pressure;BME280_temperature;BME280_humidity;BME280_pressure;Samples;Min_cycle;Max_cycle;Signal;HPM_P1;HPM_P2
2022/10/23 00:00:35;;;;;;;17.00;7.70;;;11.70;93.50;;;;;;5113931;28;20059;-38
2022/10/23 00:03:01;;;;;;;16.40;7.88;;;11.70;93.60;;;;;;5113834;28;20034;-38
2022/10/23 00:05:27;;;;;;;11.73;7.05;;;11.70;93.50;;;;;;5114092;28;20024;-38
2022/10/23 00:07:56;;;;;;;14.25;7.32;;;11.60;93.60;;;;;;5113756;28;20053;-38
2022/10/23 00:10:23;;;;;;;12.98;8.38;;;11.60;93.60;;;;;;5114086;28;20046;-39
2022/10/23 00:12:49;;;;;;;25.60;9.68;;;11.50;93.60;;;;;;5113785;28;20024;-38
2022/10/23 00:15:17;;;;;;;15.18;7.90;;;11.50;93.70;;;;;;5113961;28;20041;-38
2022/10/23 00:17:43;;;;;;;14.65;7.20;;;11.50;93.70;;;;;;5114195;28;20027;-38
2022/10/23 00:20:09;;;;;;;14.07;7.55;;;11.50;93.80;;;;;;5113534;28;20072;-38
2022/10/23 00:22:36;;;;;;;17.77;8.05;;;11.40;93.80;;;;;;5113707;28;20020;-38
2022/10/23 00:25:02;;;;;;;11.93;6.65;;;11.40;93.80;;;;;;5113708;28;20027;-39
2022/10/23 00:27:28;;;;;;;9.70;6.25;;;11.30;93.80;;;;;;5095217;28;20020;-39
2022/10/23 00:29:53;;;;;;;9.95;6.13;;;11.40;93.80;;;;;;5113859;28;20028;-39
2022/10/23 00:32:19;;;;;;;10.48;6.22;;;11.30;93.90;;;;;;5113855;28;20379;-41
2022/10/23 00:34:45;;;;;;;16.10;6.82;;;11.30;93.90;;;;;;5113554;28;20023;-39
2022/10/23 00:37:10;;;;;;;9.85;6.57;;;11.30;93.90;;;;;;5113426;28;20027;-38
2022/10/23 00:39:36;;;;;;;15.68;7.13;;;11.30;94.00;;;;;;5113067;28;20056;-38
2022/10/23 00:42:01;;;;;;;21.38;8.23;;;11.20;94.00;;;;;;5114435;28;20491;-39
2022/10/23 00:44:27;;;;;;;12.40;7.10;;;11.20;94.00;;;;;;5116060;28;20031;-38
2022/10/23 00:46:53;;;;;;;16.85;8.07;;;11.20;94.00;;;;;;5114963;28;20030;-38
2022/10/23 00:49:19;;;;;;;28.90;7.30;;;11.20;94.00;;;;;;5113354;28;20031;-38
2022/10/23 00:51:55;;;;;;;23.98;8.50;;;11.10;94.00;;;;;;5113617;28;20038;-39
2022/10/23 00:54:26;;;;;;;12.20;7.00;;;11.10;94.10;;;;;;5113236;28;20426;-38
2022/10/23 00:56:55;;;;;;;15.20;6.57;;;11.10;94.10;;;;;;5095287;28;20092;-39
2022/10/23 00:59:22;;;;;;;18.80;7.10;;;11.10;94.20;;;;;;5113341;28;20054;-39
2022/10/23 01:01:48;;;;;;;11.85;5.82;;;11.10;94.20;;;;;;5115361;28;20257;-39
2022/10/23 01:04:13;;;;;;;18.60;6.72;;;11.10;94.20;;;;;;5117821;28;20428;-40
2022/10/23 01:07:06;;;;;;;12.82;7.50;;;11.10;94.30;;;;;;5117959;28;20027;-39
2022/10/23 01:10:10;;;;;;;12.20;5.53;;;11.00;94.30;;;;;;5117311;28;20055;-38
2022/10/23 01:12:57;;;;;;;9.77;6.60;;;10.90;94.30;;;;;;5118150;28;20110;-38
2022/10/23 01:15:50;;;;;;;12.55;6.63;;;11.00;94.30;;;;;;5117507;28;20338;-38
2022/10/23 01:18:27;;;;;;;15.77;6.55;;;10.90;94.30;;;;;;5116282;28;20399;-38
2022/10/23 01:21:28;;;;;;;11.57;5.97;;;10.90;94.40;;;;;;5117024;28;20027;-38
2022/10/23 01:24:05;;;;;;;15.60;6.53;;;10.80;94.40;;;;;;5117241;28;20035;-40
2022/10/23 01:27:08;;;;;;;12.93;7.05;;;10.90;94.40;;;;;;5116712;28;20039;-40
2022/10/23 01:29:44;;;;;;;8.50;5.38;;;10.90;94.40;;;;;;5116532;28;20052;-39
2022/10/23 01:32:18;;;;;;;16.13;5.82;;;10.90;94.50;;;;;;5098179;28;20032;-38
2022/10/23 01:34:54;;;;;;;14.07;6.18;;;10.90;94.50;;;;;;5116494;28;20383;-38
2022/10/23 01:37:26;;;;;;;17.20;5.47;;;10.90;94.60;;;;;;5116528;28;20444;-40
2022/10/23 01:39:56;;;;;;;14.75;5.85;;;11.00;94.60;;;;;;5116341;28;20085;-39
2022/10/23 01:42:28;;;;;;;10.68;5.90;;;10.90;94.60;;;;;;5116570;28;20491;-38
2022/10/23 01:45:03;;;;;;;12.90;5.32;;;11.00;94.60;;;;;;5116603;28;20053;-38
2022/10/23 01:47:33;;;;;;;13.65;5.43;;;11.00;94.60;;;;;;5116625;28;20519;-38
2022/10/23 01:50:01;;;;;;;17.65;6.32;;;11.10;94.60;;;;;;5116941;28;20015;-39
2022/10/23 01:52:27;;;;;;;15.55;5.25;;;11.00;94.60;;;;;;5116341;28;20499;-39
2022/10/23 01:54:58;;;;;;;10.77;5.55;;;11.10;94.60;;;;;;5116479;28;20081;-38
2022/10/23 01:57:25;;;;;;;11.50;6.63;;;11.10;94.60;;;;;;5116740;28;20367;-38
2022/10/23 02:00:00;;;;;;;9.93;5.55;;;11.10;94.70;;;;;;5116152;28;20034;-38
2022/10/23 02:02:27;;;;;;;13.55;5.47;;;11.10;94.70;;;;;;5116448;28;20097;-37
2022/10/23 02:05:00;;;;;;;18.85;7.15;;;11.20;94.70;;;;;;5116639;28;20024;-38
2022/10/23 02:07:26;;;;;;;12.25;5.80;;;11.20;94.70;;;;;;5116361;28;20051;-38
2022/10/23 02:09:52;;;;;;;15.55;5.70;;;11.20;94.70;;;;;;5116107;28;20047;-38
2022/10/23 02:12:34;;;;;;;10.38;5.07;;;11.30;94.80;;;;;;5115392;28;20028;-38
2022/10/23 02:15:09;;;;;;;12.30;5.25;;;11.30;94.70;;;;;;5116449;28;20023;-37
2022/10/23 02:17:46;;;;;;;18.25;7.32;;;11.30;94.70;;;;;;5115820;28;20059;-38
2022/10/23 02:20:21;;;;;;;9.05;4.65;;;11.30;94.80;;;;;;5115981;28;20023;-38
2022/10/23 02:23:17;;;;;;;9.88;5.53;;;11.30;94.80;;;;;;5116143;28;20026;-38
2022/10/23 02:25:54;;;;;;;21.98;6.82;;;11.40;94.80;;;;;;5116122;28;20035;-39
2022/10/23 02:28:31;;;;;;;14.35;6.47;;;11.40;94.80;;;;;;5116379;28;20414;-38
2022/10/23 02:31:01;;;;;;;12.38;5.22;;;11.40;94.80;;;;;;5115955;28;20023;-40
2022/10/23 02:33:29;;;;;;;18.13;6.47;;;11.40;94.70;;;;;;5115951;28;20425;-39
2022/10/23 02:35:55;;;;;;;12.65;5.65;;;11.40;94.80;;;;;;5115435;28;20539;-41
2022/10/23 02:38:30;;;;;;;13.98;5.70;;;11.40;94.80;;;;;;5115627;28;20070;-40
2022/10/23 02:41:04;;;;;;;23.65;10.70;;;11.40;94.70;;;;;;5115459;28;20399;-39
2022/10/23 02:43:37;;;;;;;29.25;12.38;;;11.30;94.70;;;;;;5115493;28;20024;-40
2022/10/23 02:46:17;;;;;;;12.68;7.03;;;11.30;94.70;;;;;;5115508;28;20020;-38
2022/10/23 02:48:51;;;;;;;12.87;5.83;;;11.30;94.80;;;;;;5115337;28;20297;-39
2022/10/23 02:52:06;;;;;;;11.40;4.55;;;11.30;94.80;;;;;;5115716;28;20054;-39
2022/10/23 02:54:59;;;;;;;14.15;5.00;;;11.30;94.80;;;;;;5012579;28;20030;-38
2022/10/23 02:57:43;;;;;;;8.98;4.82;;;11.30;94.80;;;;;;5112625;28;20044;-39
2022/10/23 03:00:18;;;;;;;13.07;5.25;;;11.40;94.80;;;;;;5096561;28;20034;-38
2022/10/23 03:02:57;;;;;;;10.77;6.32;;;11.30;94.80;;;;;;5115239;28;20157;-38
2022/10/23 03:05:31;;;;;;;15.05;4.75;;;11.40;94.80;;;;;;5115200;28;20023;-38
2022/10/23 03:07:57;;;;;;;11.05;4.90;;;11.30;94.80;;;;;;5115314;28;20028;-39
2022/10/23 03:10:23;;;;;;;11.60;5.03;;;11.40;94.80;;;;;;5115017;28;20152;-38
2022/10/23 03:12:49;;;;;;;12.70;5.28;;;11.40;94.80;;;;;;5114778;28;20028;-38
2022/10/23 03:15:15;;;;;;;8.07;4.50;;;11.40;94.80;;;;;;5114691;28;20034;-38
2022/10/23 03:17:41;;;;;;;13.50;5.10;;;11.40;94.80;;;;;;5114938;28;20035;-38
2022/10/23 03:20:08;;;;;;;12.50;5.07;;;11.40;94.80;;;;;;5096635;28;20031;-45
2022/10/23 03:22:34;;;;;;;10.23;5.28;;;11.40;94.80;;;;;;5114827;28;20099;-38
2022/10/23 03:24:59;;;;;;;15.32;5.65;;;11.40;94.80;;;;;;5113862;28;20099;-39
2022/10/23 03:27:25;;;;;;;14.70;4.70;;;11.40;94.80;;;;;;5114744;28;20168;-39
2022/10/23 03:29:50;;;;;;;17.23;5.13;;;11.40;94.80;;;;;;5114662;28;20467;-38
2022/10/23 03:32:16;;;;;;;12.57;5.25;;;11.50;94.80;;;;;;5114353;28;20035;-39
2022/10/23 03:34:42;;;;;;;15.30;4.95;;;11.50;94.80;;;;;;5114698;28;20098;-39
2022/10/23 03:37:07;;;;;;;13.30;5.80;;;11.60;94.80;;;;;;5114361;28;20109;-39
2022/10/23 03:39:33;;;;;;;10.80;4.70;;;11.60;94.80;;;;;;5113911;28;20071;-40
2022/10/23 03:41:59;;;;;;;11.13;6.22;;;11.60;94.80;;;;;;5114286;28;20020;-38
2022/10/23 03:44:25;;;;;;;15.48;5.13;;;11.60;94.80;;;;;;5114231;28;20024;-39
2022/10/23 03:46:50;;;;;;;18.80;5.97;;;11.60;94.80;;;;;;5114196;28;20411;-39
2022/10/23 03:49:16;;;;;;;10.30;5.50;;;11.50;94.70;;;;;;5114612;28;20012;-38
2022/10/23 03:51:43;;;;;;;18.73;6.10;;;11.50;94.70;;;;;;5095725;28;20016;-40
2022/10/23 03:54:09;;;;;;;16.65;7.03;;;11.60;94.70;;;;;;5114133;28;20138;-38
2022/10/23 03:56:35;;;;;;;12.38;6.07;;;11.60;94.70;;;;;;5114037;28;20019;-38
2022/10/23 03:59:00;;;;;;;10.25;4.65;;;11.60;94.80;;;;;;5114250;28;20043;-38
2022/10/23 04:01:26;;;;;;;14.95;5.78;;;11.60;94.70;;;;;;5113703;28;20467;-39
2022/10/23 04:03:52;;;;;;;19.92;6.43;;;11.60;94.70;;;;;;5114021;28;20019;-39
2022/10/23 04:06:17;;;;;;;11.57;5.30;;;11.70;94.70;;;;;;5113821;28;20027;-39
2022/10/23 04:08:44;;;;;;;16.08;6.20;;;11.80;94.80;;;;;;5113921;28;20020;-38
2022/10/23 04:11:10;;;;;;;14.32;6.30;;;11.80;94.70;;;;;;5113821;28;20023;-39
2022/10/23 04:13:36;;;;;;;13.40;5.55;;;11.80;94.70;;;;;;5113543;28;20027;-38
2022/10/23 04:16:02;;;;;;;12.15;5.15;;;11.80;94.70;;;;;;5113629;28;20362;-38
2022/10/23 04:18:27;;;;;;;10.68;4.80;;;11.80;94.70;;;;;;5113473;28;20164;-38
2022/10/23 04:20:53;;;;;;;11.45;5.53;;;11.80;94.60;;;;;;5094959;28;20028;-38
2022/10/23 04:23:19;;;;;;;12.02;5.95;;;11.80;94.60;;;;;;5113313;28;20068;-38
2022/10/23 04:25:45;;;;;;;13.20;5.72;;;11.80;94.60;;;;;;5113380;28;20105;-38
2022/10/23 04:28:11;;;;;;;18.35;6.78;;;11.80;94.60;;;;;;5113481;28;20026;-38
2022/10/23 04:30:37;;;;;;;12.80;4.90;;;11.80;94.60;;;;;;5113349;28;20479;-38
2022/10/23 04:33:02;;;;;;;11.35;4.97;;;11.80;94.60;;;;;;5113636;28;20490;-38
2022/10/23 04:35:28;;;;;;;12.95;6.32;;;11.80;94.50;;;;;;5113311;28;20027;-38
2022/10/23 04:37:54;;;;;;;16.13;8.30;;;11.80;94.50;;;;;;5113124;28;20357;-38
2022/10/23 04:40:19;;;;;;;12.73;5.38;;;11.80;94.50;;;;;;5112922;28;20476;-39
2022/10/23 04:42:45;;;;;;;14.30;5.50;;;11.80;94.60;;;;;;5113184;28;20030;-38
2022/10/23 04:45:11;;;;;;;17.58;5.80;;;11.70;94.50;;;;;;5113390;28;20106;-39
2022/10/23 04:47:36;;;;;;;12.95;6.53;;;11.70;94.50;;;;;;5113112;28;20023;-39
2022/10/23 04:50:02;;;;;;;12.50;5.50;;;11.70;94.50;;;;;;5113091;28;20051;-38
2022/10/23 04:52:28;;;;;;;9.43;4.13;;;11.70;94.50;;;;;;5113061;28;20438;-38
2022/10/23 04:54:53;;;;;;;15.32;6.05;;;11.80;94.50;;;;;;5113057;28;20051;-38
2022/10/23 04:57:19;;;;;;;11.40;4.80;;;11.70;94.50;;;;;;5113240;28;20383;-38
2022/10/23 04:59:44;;;;;;;17.40;6.90;;;11.70;94.50;;;;;;5113294;28;20024;-37
2022/10/23 05:02:10;;;;;;;14.35;5.53;;;11.70;94.50;;;;;;5113439;28;20421;-39
2022/10/23 05:04:36;;;;;;;11.88;5.60;;;11.70;94.40;;;;;;5113073;28;20024;-38
2022/10/23 05:07:01;;;;;;;10.88;4.35;;;11.70;94.50;;;;;;5094784;28;20483;-38
2022/10/23 05:09:27;;;;;;;11.80;5.50;;;11.70;94.50;;;;;;5113180;28;20102;-40
2022/10/23 05:11:52;;;;;;;15.07;5.63;;;11.70;94.50;;;;;;5113955;28;20027;-38
2022/10/23 05:14:18;;;;;;;11.18;5.00;;;11.70;94.50;;;;;;5112966;28;20033;-38
2022/10/23 05:16:56;;;;;;;12.95;4.18;;;11.80;94.50;;;;;;5112959;28;20099;-38
2022/10/23 05:19:26;;;;;;;12.32;4.82;;;11.80;94.50;;;;;;5113131;28;20023;-38
2022/10/23 05:21:54;;;;;;;;;;;11.80;94.50;;;;;;5113700;28;20070;-38
2022/10/23 05:24:21;;;;;;;13.05;6.13;;;11.80;94.40;;;;;;5113212;28;19994;-38
2022/10/23 05:26:50;;;;;;;14.38;4.72;;;11.80;94.50;;;;;;5113147;28;20019;-39
2022/10/23 05:29:16;;;;;;;10.52;4.82;;;11.80;94.40;;;;;;5113156;28;20024;-39
2022/10/23 05:31:42;;;;;;;14.80;5.38;;;11.80;94.40;;;;;;5113275;28;20467;-39
2022/10/23 05:34:09;;;;;;;8.45;4.38;;;11.80;94.40;;;;;;5112815;28;20023;-40
2022/10/23 05:36:36;;;;;;;8.77;4.10;;;11.80;94.50;;;;;;5113194;28;20020;-38
2022/10/23 05:39:03;;;;;;;10.18;5.43;;;11.80;94.40;;;;;;5112524;28;20024;-39
2022/10/23 05:41:29;;;;;;;11.68;5.25;;;11.80;94.40;;;;;;5112589;28;20066;-45
2022/10/23 05:43:54;;;;;;;8.95;4.53;;;11.80;94.40;;;;;;5113172;28;20376;-39
2022/10/23 05:46:22;;;;;;;20.08;4.93;;;11.80;94.40;;;;;;5112813;28;20039;-38
2022/10/23 05:48:51;;;;;;;8.85;4.97;;;11.80;94.40;;;;;;5116225;28;20027;-38
2022/10/23 05:51:21;;;;;;;8.43;5.30;;;11.80;94.30;;;;;;5116270;28;20024;-38
2022/10/23 05:53:47;;;;;;;14.25;4.95;;;11.80;94.40;;;;;;5116709;28;20035;-39
2022/10/23 05:56:13;;;;;;;8.00;4.95;;;11.80;94.30;;;;;;5116647;28;20039;-38
2022/10/23 16:26:41;;;;;;;6.80;3.03;;;17.30;83.40;;;;;;5103322;27;20397;-38
2022/10/23 16:29:08;;;;;;;11.25;3.10;;;17.30;83.80;;;;;;5070395;28;20472;-39
2022/10/23 16:31:34;;;;;;;7.28;3.08;;;17.20;84.30;;;;;;5070446;28;20154;-41
2022/10/23 16:34:01;;;;;;;7.38;3.78;;;17.20;84.40;;;;;;5070726;28;20127;-39
2022/10/23 16:36:27;;;;;;;8.13;2.88;;;17.20;84.80;;;;;;5070068;28;20036;-38
2022/10/23 16:38:53;;;;;;;9.73;2.88;;;17.20;84.70;;;;;;5070496;28;20495;-39
2022/10/23 16:41:18;;;;;;;6.97;2.90;;;17.20;85.00;;;;;;5070492;28;20056;-46
2022/10/23 16:43:44;;;;;;;7.03;2.85;;;17.20;85.20;;;;;;5068662;28;20044;-39
2022/10/23 16:46:14;;;;;;;18.23;3.17;;;17.10;85.20;;;;;;5070612;28;20059;-39
2022/10/23 16:48:40;;;;;;;9.77;3.67;;;17.10;85.70;;;;;;5070008;28;20020;-40
2022/10/23 16:51:08;;;;;;;4.43;2.35;;;17.10;85.70;;;;;;5070246;28;20358;-48
2022/10/23 16:53:34;;;;;;;18.92;3.83;;;17.10;85.90;;;;;;5069050;28;20039;-50
2022/10/23 16:56:03;;;;;;;6.05;2.78;;;17.10;86.20;;;;;;5070384;28;20128;-50
2022/10/23 16:58:29;;;;;;;8.45;2.72;;;17.00;86.60;;;;;;5069871;28;20028;-40
2022/10/23 17:01:00;;;;;;;8.02;3.33;;;17.00;86.50;;;;;;5070039;28;20388;-39
2022/10/23 17:03:26;;;;;;;4.63;2.58;;;17.10;86.40;;;;;;5069622;28;20032;-38
2022/10/23 17:05:52;;;;;;;9.25;2.95;;;17.00;86.60;;;;;;5069897;28;20032;-39
2022/10/23 17:08:18;;;;;;;8.20;2.85;;;17.10;86.50;;;;;;5069725;28;20461;-38
2022/10/23 17:10:43;;;;;;;7.03;2.88;;;17.10;86.70;;;;;;5070260;28;20103;-40
2022/10/23 17:13:09;;;;;;;9.60;3.15;;;17.00;87.00;;;;;;5071919;28;20028;-39
2022/10/23 17:15:35;;;;;;;13.13;3.75;;;16.90;87.40;;;;;;5069085;28;20393;-39
2022/10/23 17:18:00;;;;;;;5.47;2.67;;;16.80;87.80;;;;;;5069104;28;20063;-39
2022/10/23 17:20:26;;;;;;;6.97;3.63;;;16.80;88.30;;;;;;5069444;28;20428;-38
2022/10/23 17:22:51;;;;;;;8.50;3.35;;;16.70;88.60;;;;;;5068850;28;20032;-38
2022/10/23 17:25:17;;;;;;;6.93;3.50;;;16.70;88.70;;;;;;5068786;28;20067;-39
2022/10/23 17:27:45;;;;;;;8.02;3.65;;;16.60;88.90;;;;;;5069151;28;20033;-39
2022/10/23 17:30:11;;;;;;;10.20;4.18;;;16.60;89.10;;;;;;5069250;28;20104;-40
2022/10/23 17:32:37;;;;;;;11.77;3.78;;;16.50;89.40;;;;;;5068988;28;20025;-40
2022/10/23 17:35:06;;;;;;;17.23;5.50;;;16.50;89.50;;;;;;5068879;28;20075;-39
2022/10/23 17:37:32;;;;;;;13.15;3.65;;;16.50;89.70;;;;;;5058987;28;20104;-38
2022/10/23 17:40:01;;;;;;;7.43;3.55;;;16.60;89.90;;;;;;5055710;28;20100;-40
2022/10/23 17:42:27;;;;;;;10.10;3.67;;;16.50;90.10;;;;;;5055864;28;20032;-40
2022/10/23 17:44:52;;;;;;;9.85;4.55;;;16.50;90.10;;;;;;5055753;28;20029;-38
2022/10/23 17:47:18;;;;;;;8.52;2.85;;;16.50;90.20;;;;;;5055638;28;20075;-38
2022/10/23 17:49:44;;;;;;;10.38;4.22;;;16.50;90.30;;;;;;5055451;28;20154;-39
2022/10/23 17:52:13;;;;;;;9.60;3.90;;;16.60;90.10;;;;;;5055545;28;20159;-38
2022/10/23 17:54:38;;;;;;;16.48;3.70;;;16.60;89.90;;;;;;5055957;28;20378;-39
2022/10/23 17:57:04;;;;;;;11.90;3.70;;;16.70;89.70;;;;;;5055312;28;20029;-41
2022/10/23 17:59:30;;;;;;;10.38;4.18;;;16.70;89.60;;;;;;5055559;28;20060;-38
2022/10/23 18:01:57;;;;;;;6.85;3.80;;;16.70;89.60;;;;;;5055098;28;20179;-38
2022/10/23 18:04:23;;;;;;;8.07;3.03;;;16.70;89.60;;;;;;5055717;28;20457;-38
2022/10/23 18:06:51;;;;;;;13.65;3.53;;;16.60;89.60;;;;;;5056525;28;20083;-40
2022/10/23 18:09:18;;;;;;;8.88;3.55;;;16.60;89.70;;;;;;5055376;28;20420;-38
2022/10/23 18:11:47;;;;;;;8.50;3.17;;;16.50;89.90;;;;;;5055147;28;20021;-39
2022/10/23 18:14:13;;;;;;;7.75;3.30;;;16.50;90.10;;;;;;5054887;28;20405;-38
2022/10/23 18:16:39;;;;;;;19.80;5.70;;;16.50;90.00;;;;;;5054045;28;20051;-39
2022/10/23 18:19:05;;;;;;;6.55;4.35;;;16.40;89.90;;;;;;5055224;28;20032;-42
2022/10/23 18:21:31;;;;;;;4.07;2.78;;;16.40;90.00;;;;;;5055897;28;20033;-38
2022/10/23 18:23:59;;;;;;;7.30;3.03;;;16.40;90.10;;;;;;5054798;28;20028;-39
2022/10/23 18:26:27;;;;;;;4.32;2.92;;;16.40;90.10;;;;;;5054628;28;20049;-39
2022/10/23 18:28:56;;;;;;;4.63;3.15;;;16.30;90.20;;;;;;5054626;28;20082;-38
2022/10/23 18:31:25;;;;;;;8.32;3.92;;;16.30;90.20;;;;;;5053523;28;20025;-38
2022/10/23 18:34:00;;;;;;;11.50;3.13;;;16.30;90.10;;;;;;5053503;28;20477;-39
2022/10/23 18:36:28;;;;;;;4.88;2.88;;;16.30;90.10;;;;;;5054960;28;20078;-38
2022/10/23 18:38:54;;;;;;;9.93;4.95;;;16.30;90.10;;;;;;5054514;28;20032;-39
2022/10/23 18:41:22;;;;;;;6.75;3.22;;;16.30;90.00;;;;;;5057299;28;20465;-39
2022/10/23 18:43:49;;;;;;;7.28;3.08;;;16.30;89.80;;;;;;5056737;28;20029;-50
2022/10/23 18:46:15;;;;;;;7.97;3.22;;;16.30;89.90;;;;;;5054675;28;20025;-48
2022/10/23 18:48:42;;;;;;;9.63;3.20;;;16.20;89.70;;;;;;5054003;28;20519;-50
2022/10/23 18:51:20;;;;;;;8.23;3.90;;;16.30;89.60;;;;;;5053354;28;20109;-49
2022/10/23 18:53:47;;;;;;;7.20;3.25;;;16.20;89.40;;;;;;5055081;28;20120;-48
2022/10/23 18:56:14;;;;;;;6.50;2.53;;;16.20;89.50;;;;;;5054653;28;20029;-52
2022/10/23 18:58:40;;;;;;;8.82;3.97;;;16.30;89.40;;;;;;5053205;28;20025;-48
2022/10/23 19:01:05;;;;;;;14.80;4.40;;;16.20;89.40;;;;;;5054575;28;20036;-49
2022/10/23 19:03:32;;;;;;;12.77;4.70;;;16.20;89.40;;;;;;5054117;28;20442;-49
2022/10/23 19:05:57;;;;;;;11.90;5.28;;;16.20;89.20;;;;;;5053973;28;20063;-50
2022/10/23 19:08:23;;;;;;;6.47;3.15;;;16.20;89.30;;;;;;5054181;28;20029;-48
2022/10/23 19:10:51;;;;;;;7.93;3.85;;;16.20;89.10;;;;;;5055631;28;20032;-49
2022/10/23 19:13:17;;;;;;;9.18;3.00;;;16.20;89.00;;;;;;5055469;28;20359;-50
2022/10/23 19:15:43;;;;;;;5.88;3.13;;;16.20;89.10;;;;;;5054793;28;20035;-50
2022/10/23 19:18:10;;;;;;;8.32;3.60;;;16.20;89.10;;;;;;5052820;28;20385;-49
2022/10/23 19:20:36;;;;;;;7.72;3.08;;;16.10;89.00;;;;;;5052562;28;20021;-51
2022/10/23 19:23:05;;;;;;;6.70;3.05;;;16.10;89.00;;;;;;5054452;28;20112;-48
2022/10/23 19:25:33;;;;;;;9.43;3.05;;;16.10;88.90;;;;;;5053634;28;20505;-50
2022/10/23 19:28:00;;;;;;;6.50;3.00;;;16.00;89.00;;;;;;5053603;28;20025;-52
2022/10/23 19:30:26;;;;;;;8.45;3.30;;;16.10;89.00;;;;;;5053838;28;20022;-51
2022/10/23 19:32:52;;;;;;;6.85;3.58;;;16.10;88.80;;;;;;5053760;28;20500;-49
2022/10/23 19:35:19;;;;;;;3.72;2.40;;;16.10;88.90;;;;;;5053683;28;20438;-50
2022/10/23 19:37:45;;;;;;;13.20;4.13;;;16.10;88.80;;;;;;5054069;28;20021;-48
2022/10/23 19:40:12;;;;;;;5.53;3.08;;;16.10;88.90;;;;;;5053666;28;20093;-49
2022/10/23 19:42:40;;;;;;;4.03;2.47;;;16.10;88.60;;;;;;5051873;28;20025;-50
2022/10/23 19:45:08;;;;;;;8.45;2.15;;;16.00;88.50;;;;;;5053228;28;20544;-48
2022/10/23 19:47:35;;;;;;;7.63;2.50;;;16.10;88.20;;;;;;5053550;28;20032;-48
2022/10/23 19:50:01;;;;;;;7.38;2.83;;;16.30;87.10;;;;;;5053152;28;20024;-48
2022/10/23 19:52:26;;;;;;;4.30;1.85;;;16.20;87.20;;;;;;5053449;28;20472;-49
2022/10/23 19:54:52;;;;;;;4.90;2.00;;;16.10;87.50;;;;;;5053354;28;20029;-50
2022/10/23 19:57:19;;;;;;;3.95;1.73;;;16.10;87.60;;;;;;5053042;28;20023;-49
2022/10/23 19:59:51;;;;;;;6.65;2.70;;;16.20;87.30;;;;;;5053072;28;20120;-48
2022/10/23 20:02:18;;;;;;;8.75;2.45;;;16.30;86.90;;;;;;5053638;28;20028;-50
2022/10/23 20:04:43;;;;;;;9.80;2.28;;;16.30;86.50;;;;;;5053146;28;20056;-50
2022/10/23 20:07:09;;;;;;;9.38;3.15;;;16.20;86.50;;;;;;5053135;28;20475;-49
2022/10/23 20:09:35;;;;;;;6.35;1.95;;;16.20;86.70;;;;;;5051802;28;20492;-49
2022/10/23 20:12:01;;;;;;;6.53;1.95;;;16.20;86.10;;;;;;5052785;28;20533;-49
2022/10/23 20:14:26;;;;;;;6.38;2.08;;;16.30;86.10;;;;;;5053480;28;20415;-48
2022/10/23 20:16:52;;;;;;;3.90;1.92;;;16.30;85.70;;;;;;5052933;28;20024;-50
2022/10/23 20:19:18;;;;;;;4.68;1.80;;;16.30;85.90;;;;;;5053019;28;20017;-48
2022/10/23 20:21:46;;;;;;;3.47;1.83;;;16.20;85.90;;;;;;5052808;28;20473;-49
2022/10/23 20:24:14;;;;;;;6.95;1.98;;;16.30;85.30;;;;;;5053028;28;20017;-49
2022/10/23 20:26:41;;;;;;;3.55;2.17;;;16.20;85.70;;;;;;5052385;28;20095;-51
2022/10/23 20:29:07;;;;;;;3.13;1.88;;;16.20;85.80;;;;;;5052356;28;20469;-48
2022/10/23 20:31:35;;;;;;;2.78;1.67;;;16.20;85.60;;;;;;5052804;28;20021;-47
2022/10/23 20:34:01;;;;;;;2.13;1.35;;;16.30;85.00;;;;;;5052662;28;20467;-50
2022/10/23 20:36:33;;;;;;;4.50;2.13;;;16.30;84.60;;;;;;5053154;28;20025;-52
2022/10/23 20:39:02;;;;;;;5.43;2.45;;;16.40;84.60;;;;;;5055097;28;20084;-51
2022/10/23 20:41:31;;;;;;;5.05;2.08;;;16.40;84.60;;;;;;5051333;28;20036;-48
2022/10/23 20:43:58;;;;;;;4.97;1.65;;;16.40;84.60;;;;;;5052907;28;20389;-49
2022/10/23 20:46:24;;;;;;;4.90;1.77;;;16.60;84.20;;;;;;5052875;28;20102;-49
2022/10/23 20:48:50;;;;;;;7.38;2.05;;;16.60;84.20;;;;;;5052632;28;20048;-50
2022/10/23 20:51:19;;;;;;;7.97;1.88;;;16.70;84.20;;;;;;5052630;28;20496;-48
2022/10/23 20:53:46;;;;;;;6.05;2.35;;;16.40;86.30;;;;;;5052605;28;20025;-49
2022/10/23 20:56:13;;;;;;;5.85;2.33;;;16.30;86.80;;;;;;5051177;28;20108;-50
2022/10/23 20:58:39;;;;;;;8.15;2.95;;;16.20;87.50;;;;;;5051359;28;20033;-49
2022/10/23 21:01:07;;;;;;;6.20;2.15;;;16.10;87.80;;;;;;5052686;28;20090;-49
2022/10/23 21:03:33;;;;;;;5.00;2.40;;;16.20;88.30;;;;;;5051782;28;20032;-49
2022/10/23 21:06:12;;;;;;;16.15;2.63;;;16.30;87.50;;;;;;5052116;28;20032;-49
2022/10/23 21:08:38;;;;;;;4.78;1.50;;;16.50;85.90;;;;;;5052483;28;20394;-51
2022/10/23 21:11:04;;;;;;;2.15;1.63;;;16.40;86.70;;;;;;5052169;28;20029;-53
2022/10/23 21:13:30;;;;;;;6.43;2.53;;;16.20;87.70;;;;;;5054781;28;20506;-47
2022/10/23 21:15:56;;;;;;;6.97;1.50;;;16.10;88.30;;;;;;5055835;28;20029;-47
2022/10/23 21:18:24;;;;;;;5.07;1.75;;;15.90;89.10;;;;;;5056131;28;20389;-48
2022/10/23 21:20:53;;;;;;;9.95;3.65;;;15.80;89.40;;;;;;5054702;28;20420;-48
2022/10/23 21:23:20;;;;;;;6.13;2.28;;;15.80;89.60;;;;;;5054292;28;20090;-49
2022/10/23 21:25:46;;;;;;;6.47;2.65;;;15.70;89.80;;;;;;5055446;28;20049;-49
2022/10/23 21:28:12;;;;;;;3.67;1.85;;;15.70;90.20;;;;;;5056193;28;20084;-49
2022/10/23 21:30:39;;;;;;;5.97;2.33;;;15.60;90.20;;;;;;5055636;28;20109;-49
2022/10/23 21:33:06;;;;;;;7.45;2.25;;;15.60;90.00;;;;;;5055427;28;20027;-49
2022/10/23 21:35:31;;;;;;;6.22;1.88;;;15.60;90.20;;;;;;5055556;28;20475;-48
2022/10/23 21:37:57;;;;;;;6.28;1.83;;;15.50;90.10;;;;;;5055932;28;20075;-48
2022/10/23 21:40:25;;;;;;;3.13;1.67;;;15.30;90.30;;;;;;5055495;28;20051;-48
2022/10/23 21:42:51;;;;;;;4.68;2.22;;;15.30;90.80;;;;;;5055942;28;20033;-50
2022/10/23 21:45:16;;;;;;;5.40;2.10;;;15.40;90.70;;;;;;5055678;28;20060;-50
2022/10/23 21:47:42;;;;;;;5.68;2.33;;;15.30;90.70;;;;;;5056070;28;20052;-49
2022/10/23 21:50:08;;;;;;;6.43;2.17;;;15.30;90.90;;;;;;5055802;28;20082;-48
2022/10/23 21:52:34;;;;;;;7.20;2.55;;;15.30;91.10;;;;;;5055803;28;20075;-50
2022/10/23 21:55:00;;;;;;;5.60;2.08;;;15.30;91.20;;;;;;5054173;28;20477;-48
2022/10/23 21:57:30;;;;;;;13.05;3.40;;;15.20;91.10;;;;;;5055586;28;20021;-52
2022/10/23 21:59:55;;;;;;;6.60;3.10;;;15.20;91.30;;;;;;5054050;28;20028;-50
2022/10/23 22:02:21;;;;;;;12.75;2.33;;;15.10;91.30;;;;;;5055331;28;20021;-49
2022/10/23 22:04:46;;;;;;;14.57;4.60;;;15.10;91.50;;;;;;5055192;28;20029;-49
2022/10/23 22:07:13;;;;;;;6.85;2.25;;;15.00;91.60;;;;;;5053721;28;20017;-47
2022/10/23 22:09:40;;;;;;;5.18;2.50;;;15.10;91.70;;;;;;5055406;28;20074;-47
2022/10/23 22:12:06;;;;;;;7.53;3.10;;;15.10;91.60;;;;;;5053823;28;20032;-48
2022/10/23 22:14:31;;;;;;;8.05;2.58;;;15.10;91.60;;;;;;5055608;28;20025;-48
2022/10/23 22:16:57;;;;;;;8.93;2.65;;;14.90;91.60;;;;;;5055310;28;20025;-49
2022/10/23 22:19:23;;;;;;;11.75;3.38;;;14.90;91.80;;;;;;5055409;28;20029;-49
2022/10/23 22:21:50;;;;;;;6.85;2.78;;;14.80;91.90;;;;;;5054894;28;20025;-50
2022/10/23 22:24:16;;;;;;;19.10;5.93;;;14.80;92.00;;;;;;5054476;28;20095;-46
2022/10/23 22:26:50;;;;;;;4.43;2.42;;;14.80;92.30;;;;;;5054961;28;20028;-48
2022/10/23 22:29:21;;;;;;;7.20;3.03;;;14.80;92.50;;;;;;5054805;28;20075;-49
2022/10/23 22:31:47;;;;;;;6.25;3.55;;;14.80;92.30;;;;;;5054659;28;20021;-50
2022/10/23 22:34:16;;;;;;;6.88;3.70;;;14.70;92.50;;;;;;5054857;28;20025;-48
2022/10/23 22:36:42;;;;;;;8.40;2.80;;;14.80;92.50;;;;;;5054600;28;20025;-50
2022/10/23 22:39:07;;;;;;;8.45;2.85;;;14.80;92.50;;;;;;5054635;28;20076;-48
2022/10/23 22:41:33;;;;;;;7.10;2.42;;;14.80;92.30;;;;;;5054526;28;20032;-49
2022/10/23 22:43:59;;;;;;;4.20;2.90;;;14.80;92.40;;;;;;5055597;28;20111;-49
2022/10/23 22:46:27;;;;;;;9.63;2.95;;;14.80;92.00;;;;;;5055264;28;20100;-56
2022/10/23 22:48:54;;;;;;;7.68;3.45;;;14.80;92.10;;;;;;5055473;28;20020;-51
2022/10/23 22:51:22;;;;;;;10.35;3.42;;;14.80;92.00;;;;;;5055585;28;20025;-52
2022/10/23 22:53:48;;;;;;;7.95;3.42;;;14.80;92.00;;;;;;5054977;28;20362;-51
2022/10/23 22:56:16;;;;;;;5.95;2.65;;;14.80;91.80;;;;;;5055910;28;20028;-52
2022/10/23 22:58:43;;;;;;;7.45;2.92;;;14.90;91.90;;;;;;5056182;28;20037;-49
2022/10/23 23:01:21;;;;;;;7.30;2.90;;;15.00;91.80;;;;;;5056166;28;20033;-49
2022/10/23 23:03:47;;;;;;;15.75;3.08;;;14.80;91.40;;;;;;5056708;28;20092;-48
2022/10/23 23:06:14;;;;;;;14.68;2.50;;;15.00;91.40;;;;;;5055835;28;20472;-50
2022/10/23 23:08:40;;;;;;;4.20;2.83;;;14.90;91.50;;;;;;5056541;28;20178;-49
2022/10/23 23:11:09;;;;;;;9.23;3.22;;;14.90;91.40;;;;;;5056011;28;20412;-50
2022/10/23 23:13:35;;;;;;;5.57;2.97;;;14.90;91.00;;;;;;5054096;28;20017;-48
2022/10/23 23:16:01;;;;;;;9.35;3.90;;;14.80;91.10;;;;;;5056346;28;20040;-53